Time;durP1;ratioP1;P1;durP2;ratioP2;P2;SDS_P1;SDS_P2;PMS_P1;PMS_P2;Temp;Humidity;BMP_temperature;BMP_pressure;BME280_temperature;BME280_humidity;BME280_pressure;Samples;Min_cycle;Max_cycle;Signal;HPM_P1;HPM_P2
2022/04/08 00:01:08;;;;;;;0.30;0.30;;;13.20;99.90;;;;;;5073105;28;20239;-84
2022/04/08 00:03:36;;;;;;;0.52;0.47;;;13.10;99.90;;;;;;5073403;28;20225;-83
2022/04/08 00:06:04;;;;;;;0.28;0.28;;;13.00;99.90;;;;;;5073680;28;20228;-85
2022/04/08 00:08:33;;;;;;;0.43;0.43;;;13.00;99.90;;;;;;5073465;28;20221;-85
2022/04/08 00:11:01;;;;;;;0.25;0.25;;;12.90;99.90;;;;;;5072664;28;20201;-87
2022/04/08 00:13:31;;;;;;;0.17;0.17;;;12.80;99.90;;;;;;5073021;28;20312;-86
2022/04/08 00:16:00;;;;;;;0.40;0.40;;;12.80;99.90;;;;;;5072487;28;20297;-87
2022/04/08 00:18:29;;;;;;;0.30;0.30;;;12.70;99.90;;;;;;5072692;28;20523;-87
2022/04/08 00:20:57;;;;;;;0.35;0.35;;;12.60;99.90;;;;;;5073152;28;20221;-86
2022/04/08 00:23:25;;;;;;;0.40;0.40;;;12.50;99.90;;;;;;5072448;28;20248;-86
2022/04/08 00:25:54;;;;;;;0.38;0.38;;;12.40;99.90;;;;;;5072167;28;20206;-86
2022/04/08 00:28:22;;;;;;;0.40;0.40;;;12.30;99.90;;;;;;5072731;28;20217;-86
2022/04/08 00:30:52;;;;;;;0.28;0.28;;;12.30;99.90;;;;;;5072918;28;20201;-86
2022/04/08 00:33:20;;;;;;;0.50;0.50;;;12.30;99.90;;;;;;5056403;28;20221;-86
2022/04/08 00:35:48;;;;;;;0.82;0.38;;;12.20;99.90;;;;;;5073348;28;20223;-86
2022/04/08 00:38:17;;;;;;;0.40;0.40;;;12.10;99.90;;;;;;5072499;28;20308;-86
2022/04/08 00:40:45;;;;;;;0.10;0.10;;;12.10;99.90;;;;;;5073124;28;20284;-86
2022/04/08 00:43:15;;;;;;;0.38;0.38;;;12.00;99.90;;;;;;5073106;28;20236;-86
2022/04/08 00:45:43;;;;;;;0.60;0.55;;;12.00;99.90;;;;;;5053255;28;20221;-86
2022/04/08 00:48:13;;;;;;;0.52;0.52;;;11.90;99.90;;;;;;5071338;28;20205;-85
2022/04/08 00:50:44;;;;;;;0.20;0.20;;;11.90;99.90;;;;;;5072663;28;20197;-87
2022/04/08 00:53:13;;;;;;;0.30;0.30;;;11.90;99.90;;;;;;5073103;28;20225;-87
2022/04/08 00:55:41;;;;;;;1.02;0.82;;;11.80;99.90;;;;;;5072597;28;20339;-87
2022/04/08 00:58:10;;;;;;;0.47;0.47;;;11.80;99.90;;;;;;5072766;28;20244;-86
2022/04/08 01:00:39;;;;;;;0.30;0.30;;;11.90;99.90;;;;;;5072719;28;20227;-87
2022/04/08 01:03:08;;;;;;;0.20;0.20;;;11.90;99.90;;;;;;5072651;28;20213;-86
2022/04/08 01:05:38;;;;;;;0.50;0.50;;;11.90;99.90;;;;;;5073076;28;20236;-86
2022/04/08 01:08:11;;;;;;;0.70;0.47;;;11.80;99.90;;;;;;5076423;28;20216;-86
2022/04/08 01:10:40;;;;;;;0.55;0.30;;;11.80;99.90;;;;;;5076755;28;20289;-86
2022/04/08 01:13:09;;;;;;;0.40;0.40;;;11.80;99.90;;;;;;5076163;28;20418;-86
2022/04/08 01:15:37;;;;;;;0.52;0.52;;;11.70;99.90;;;;;;5076644;28;20230;-86
2022/04/08 01:18:06;;;;;;;0.30;0.30;;;11.60;99.90;;;;;;5076297;28;20227;-84
2022/04/08 01:20:35;;;;;;;0.25;0.25;;;11.60;99.90;;;;;;5076272;28;20244;-86
2022/04/08 01:23:06;;;;;;;0.52;0.52;;;11.50;99.90;;;;;;5076721;28;20304;-86
2022/04/08 01:25:36;;;;;;;0.40;0.32;;;11.50;99.90;;;;;;5076949;28;20342;-86
2022/04/08 01:28:04;;;;;;;0.52;0.52;;;11.50;99.90;;;;;;5076558;28;20292;-86
2022/04/08 01:30:33;;;;;;;0.43;0.43;;;11.40;99.90;;;;;;5075910;28;20284;-85
2022/04/08 01:33:01;;;;;;;0.60;0.60;;;11.40;99.90;;;;;;5081286;28;20225;-87
2022/04/08 01:35:30;;;;;;;0.93;0.70;;;11.40;99.90;;;;;;5076739;28;20262;-85
2022/04/08 01:37:58;;;;;;;0.40;0.40;;;11.40;99.90;;;;;;5076484;28;20236;-87
2022/04/08 01:40:27;;;;;;;1.27;0.80;;;11.20;99.90;;;;;;5075829;28;20236;-86
2022/04/08 01:42:56;;;;;;;1.15;1.05;;;11.10;99.90;;;;;;5075474;28;20221;-86
2022/04/08 01:45:25;;;;;;;0.70;0.70;;;11.00;99.90;;;;;;5075952;28;20205;-86
2022/04/08 01:47:53;;;;;;;0.88;0.88;;;11.00;99.90;;;;;;5074682;28;20208;-86
2022/04/08 01:50:22;;;;;;;0.75;0.75;;;11.00;99.90;;;;;;5058717;28;20250;-87
2022/04/08 01:52:50;;;;;;;0.60;0.60;;;10.90;99.90;;;;;;5071530;28;20243;-87
2022/04/08 01:55:19;;;;;;;0.35;0.35;;;10.80;99.90;;;;;;5075894;28;20297;-87
2022/04/08 01:57:47;;;;;;;1.50;0.90;;;10.70;99.90;;;;;;5075772;28;20289;-87
2022/04/08 02:00:17;;;;;;;1.20;1.08;;;10.60;99.90;;;;;;5075233;28;20308;-88
2022/04/08 02:02:46;;;;;;;2.88;1.17;;;10.50;99.90;;;;;;5075690;28;20305;-87
2022/04/08 02:05:15;;;;;;;0.88;0.88;;;10.40;99.90;;;;;;5076153;28;20239;-86
2022/04/08 02:07:43;;;;;;;0.77;0.77;;;10.30;99.90;;;;;;5075694;28;20261;-87
2022/04/08 02:10:12;;;;;;;1.15;1.08;;;10.30;99.90;;;;;;5075326;28;20200;-87
2022/04/08 02:12:40;;;;;;;4.47;0.90;;;10.20;99.90;;;;;;5074694;28;20241;-87
2022/04/08 02:15:10;;;;;;;1.45;0.95;;;10.20;99.90;;;;;;5075677;28;20205;-87
2022/04/08 02:17:40;;;;;;;2.85;1.27;;;10.10;99.90;;;;;;5074693;28;20299;-87
2022/04/08 02:20:09;;;;;;;1.45;0.90;;;10.10;99.90;;;;;;5075398;28;20304;-87
2022/04/08 02:22:37;;;;;;;1.00;0.70;;;10.00;99.90;;;;;;5074627;28;20304;-88
2022/04/08 02:25:07;;;;;;;1.02;0.80;;;10.00;99.90;;;;;;5075255;28;20313;-87
2022/04/08 02:27:35;;;;;;;0.63;0.63;;;10.00;99.90;;;;;;5075997;28;20285;-86
2022/04/08 02:30:04;;;;;;;2.17;0.93;;;9.90;99.90;;;;;;5076742;28;20194;-88
2022/04/08 02:32:40;;;;;;;2.53;1.35;;;9.90;99.90;;;;;;5075135;28;20244;-87
2022/04/08 02:35:09;;;;;;;0.55;0.55;;;9.90;99.90;;;;;;5075358;28;20223;-87
2022/04/08 02:37:37;;;;;;;1.17;0.98;;;9.80;99.90;;;;;;5075171;28;20308;-86
2022/04/08 02:40:07;;;;;;;1.23;1.15;;;9.80;99.90;;;;;;5075076;28;20248;-86
2022/04/08 02:42:35;;;;;;;3.03;1.30;;;9.80;99.90;;;;;;5074417;28;20213;-86
2022/04/08 02:45:04;;;;;;;1.77;1.30;;;9.80;99.90;;;;;;5075314;28;20193;-85
2022/04/08 02:47:32;;;;;;;1.50;1.08;;;9.80;99.90;;;;;;5074703;28;20228;-87
2022/04/08 02:50:02;;;;;;;1.88;1.10;;;9.80;99.90;;;;;;5074396;28;20221;-86
2022/04/08 02:52:30;;;;;;;1.40;1.20;;;9.70;99.90;;;;;;5074500;28;20263;-87
2022/04/08 02:54:58;;;;;;;2.15;1.30;;;9.70;99.90;;;;;;5074727;28;20205;-87
2022/04/08 02:57:27;;;;;;;1.10;0.95;;;9.70;99.90;;;;;;5074613;28;20197;-87
2022/04/08 02:59:55;;;;;;;1.27;1.17;;;9.70;99.90;;;;;;5074442;28;20236;-87
2022/04/08 03:02:24;;;;;;;2.75;1.05;;;9.80;99.90;;;;;;5074727;28;20231;-86
2022/04/08 03:04:53;;;;;;;1.55;1.45;;;9.80;99.90;;;;;;5074587;28;20227;-86
2022/04/08 03:07:23;;;;;;;1.67;1.33;;;9.80;99.90;;;;;;5074130;28;20201;-85
2022/04/08 03:09:51;;;;;;;0.98;0.90;;;9.80;99.90;;;;;;5071416;28;20213;-86
2022/04/08 03:12:20;;;;;;;1.20;1.10;;;9.80;99.90;;;;;;5073434;28;20216;-87
2022/04/08 03:14:48;;;;;;;1.20;1.10;;;9.80;99.90;;;;;;5074428;28;20288;-86
2022/04/08 03:17:16;;;;;;;2.17;1.13;;;9.80;99.90;;;;;;5074417;28;20209;-87
2022/04/08 03:19:45;;;;;;;1.73;1.17;;;9.70;99.90;;;;;;5073792;28;20320;-86
2022/04/08 03:22:13;;;;;;;1.75;1.02;;;9.60;99.90;;;;;;5073580;28;20240;-87
2022/04/08 03:24:43;;;;;;;1.02;1.00;;;9.60;99.90;;;;;;5074192;28;20232;-86
2022/04/08 03:27:11;;;;;;;1.08;0.90;;;9.60;99.90;;;;;;5073527;28;20197;-87
2022/04/08 03:29:40;;;;;;;1.13;1.10;;;9.60;99.90;;;;;;5073985;28;20292;-86
2022/04/08 03:32:09;;;;;;;3.05;1.50;;;9.60;99.90;;;;;;5073453;28;20311;-86
2022/04/08 03:34:37;;;;;;;1.75;1.23;;;9.50;99.90;;;;;;5073839;28;20228;-86
2022/04/08 03:37:06;;;;;;;1.92;1.20;;;9.50;99.90;;;;;;5073980;28;20224;-87
2022/04/08 03:39:34;;;;;;;1.90;1.35;;;9.50;99.90;;;;;;5074010;28;20308;-87
2022/04/08 03:42:06;;;;;;;1.33;1.23;;;9.60;99.90;;;;;;5073567;28;20252;-87
2022/04/08 03:44:34;;;;;;;2.55;1.25;;;9.60;99.90;;;;;;5073780;28;20197;-86
2022/04/08 03:47:02;;;;;;;1.33;0.68;;;9.60;99.90;;;;;;5073868;28;20240;-86
2022/04/08 03:49:33;;;;;;;5.03;1.38;;;9.60;99.90;;;;;;5074101;28;20221;-86
2022/04/08 03:52:04;;;;;;;2.67;1.10;;;9.60;99.90;;;;;;5073506;28;20221;-86
2022/04/08 03:54:32;;;;;;;1.05;0.70;;;9.60;99.90;;;;;;5074097;28;20290;-86
2022/04/08 03:57:01;;;;;;;2.30;1.30;;;9.60;99.90;;;;;;5073459;28;20213;-86
2022/04/08 03:59:31;;;;;;;0.93;0.90;;;9.60;99.90;;;;;;5073424;28;20235;-86
2022/04/08 04:02:01;;;;;;;1.80;1.13;;;9.50;99.90;;;;;;5073831;28;20268;-86
2022/04/08 04:04:29;;;;;;;1.90;1.05;;;9.60;99.90;;;;;;5073642;28;20284;-87
2022/04/08 04:06:57;;;;;;;1.75;1.00;;;9.60;99.90;;;;;;5069834;28;20224;-86
2022/04/08 04:09:26;;;;;;;1.45;0.90;;;9.60;99.90;;;;;;5073173;28;20197;-86
2022/04/08 04:11:54;;;;;;;1.00;1.00;;;9.60;99.90;;;;;;5073321;28;20274;-86
2022/04/08 04:14:22;;;;;;;11.93;1.33;;;9.60;99.90;;;;;;5073212;28;20300;-89
2022/04/08 04:16:52;;;;;;;1.63;1.10;;;9.60;99.90;;;;;;5073153;28;20217;-89
2022/04/08 04:19:20;;;;;;;0.60;0.60;;;9.60;99.90;;;;;;5072694;28;20289;-88
2022/04/08 04:21:50;;;;;;;1.10;0.98;;;9.60;99.90;;;;;;5072447;28;20255;-86
2022/04/08 04:24:19;;;;;;;1.38;1.27;;;9.60;99.90;;;;;;5072950;28;20193;-86
2022/04/08 04:26:47;;;;;;;1.10;1.00;;;9.50;99.90;;;;;;5073048;28;20205;-85
2022/04/08 04:29:15;;;;;;;2.28;1.30;;;9.50;99.90;;;;;;5072773;28;20210;-86
2022/04/08 04:31:44;;;;;;;0.80;0.77;;;9.50;99.90;;;;;;5072281;28;20236;-86
2022/04/08 04:34:14;;;;;;;1.17;1.00;;;9.50;99.90;;;;;;5072793;28;20201;-86
2022/04/08 04:36:42;;;;;;;1.73;1.30;;;9.50;99.90;;;;;;5072591;28;20285;-85
2022/04/08 04:39:11;;;;;;;0.85;0.85;;;9.50;99.90;;;;;;5072811;28;20235;-85
2022/04/08 04:41:40;;;;;;;2.10;1.50;;;9.50;99.90;;;;;;5072020;28;20228;-86
2022/04/08 04:44:08;;;;;;;1.40;1.00;;;9.40;99.90;;;;;;5072866;28;20197;-86
2022/04/08 04:46:37;;;;;;;1.33;1.20;;;9.40;99.90;;;;;;5063741;28;20293;-86
2022/04/08 04:49:06;;;;;;;1.25;1.15;;;9.40;99.90;;;;;;5069648;28;20197;-86
2022/04/08 04:51:36;;;;;;;1.50;1.00;;;9.40;99.90;;;;;;5072476;28;20197;-86
2022/04/08 04:54:04;;;;;;;1.60;1.08;;;9.50;99.90;;;;;;5072717;28;20197;-85
2022/04/08 04:56:33;;;;;;;0.85;0.85;;;9.50;99.90;;;;;;5072611;28;20201;-85
2022/04/08 04:59:01;;;;;;;1.92;1.15;;;9.50;99.90;;;;;;5072524;28;20300;-85
2022/04/08 05:01:29;;;;;;;1.08;0.93;;;9.50;99.90;;;;;;5072028;28;20221;-85
2022/04/08 05:03:58;;;;;;;0.80;0.80;;;9.60;99.90;;;;;;5072594;28;20213;-86
2022/04/08 05:06:26;;;;;;;1.38;1.20;;;9.60;99.90;;;;;;5072946;28;20201;-85
2022/04/08 05:08:56;;;;;;;0.73;0.73;;;9.70;99.90;;;;;;5072767;28;20205;-86
2022/04/08 05:11:24;;;;;;;1.75;1.50;;;9.70;99.90;;;;;;5072569;28;20200;-86
2022/04/08 05:13:53;;;;;;;1.30;1.20;;;9.70;99.90;;;;;;5072509;28;20221;-86
2022/04/08 05:16:21;;;;;;;1.05;0.95;;;9.70;99.90;;;;;;5070751;28;20201;-86
2022/04/08 05:18:50;;;;;;;1.40;1.23;;;9.70;99.90;;;;;;5072828;28;20197;-86
2022/04/08 05:21:18;;;;;;;1.88;1.30;;;9.80;99.90;;;;;;5072716;28;20243;-84
2022/04/08 05:23:46;;;;;;;2.92;1.23;;;9.70;99.90;;;;;;5073033;28;20313;-85
2022/04/08 05:26:16;;;;;;;1.02;0.93;;;9.70;99.90;;;;;;5072638;28;20284;-85
2022/04/08 05:28:45;;;;;;;1.83;1.05;;;9.70;99.90;;;;;;5072557;28;20209;-84
2022/04/08 05:31:14;;;;;;;1.35;1.17;;;9.70;99.90;;;;;;5072704;28;20247;-84
2022/04/08 05:33:42;;;;;;;1.58;1.13;;;9.70;99.90;;;;;;5074697;28;20286;-85
2022/04/08 05:36:10;;;;;;;1.65;1.10;;;9.60;99.90;;;;;;5072561;28;20302;-84
2022/04/08 05:38:43;;;;;;;1.27;1.05;;;9.70;99.90;;;;;;5071845;28;20205;-85
2022/04/08 05:41:11;;;;;;;1.13;0.93;;;9.70;99.90;;;;;;5071909;28;20252;-84
2022/04/08 05:43:44;;;;;;;2.38;1.30;;;9.70;99.90;;;;;;5072706;28;20307;-87
2022/04/08 05:46:12;;;;;;;1.00;1.00;;;9.70;99.90;;;;;;5057336;28;20206;-85
2022/04/08 05:48:41;;;;;;;2.05;1.33;;;9.70;99.90;;;;;;5052776;28;20237;-83
2022/04/08 05:51:10;;;;;;;0.93;0.90;;;9.70;99.90;;;;;;5052440;28;20269;-84
2022/04/08 05:53:38;;;;;;;1.58;0.98;;;9.70;99.90;;;;;;5075045;28;20217;-84
2022/04/08 05:56:07;;;;;;;3.20;1.30;;;9.70;99.90;;;;;;5075420;28;20201;-84
2022/04/08 05:58:35;;;;;;;0.82;0.82;;;9.70;99.90;;;;;;5074593;28;20255;-84
2022/04/08 06:01:05;;;;;;;0.82;0.75;;;9.80;99.90;;;;;;5074921;28;20270;-84
2022/04/08 06:03:34;;;;;;;0.70;0.70;;;9.80;99.90;;;;;;5071708;28;20296;-84
2022/04/08 06:06:02;;;;;;;2.85;1.05;;;9.90;99.90;;;;;;5072224;28;20198;-87
2022/04/08 06:08:31;;;;;;;5.25;1.45;;;10.00;99.90;;;;;;5075830;28;20264;-85
2022/04/08 06:10:59;;;;;;;0.85;0.85;;;10.00;99.90;;;;;;5075872;28;20313;-86
2022/04/08 06:13:28;;;;;;;0.75;0.75;;;10.10;99.90;;;;;;5075581;28;20304;-85
2022/04/08 06:15:56;;;;;;;1.80;1.13;;;10.20;99.90;;;;;;5075611;28;20213;-85
2022/04/08 06:18:26;;;;;;;0.88;0.85;;;10.20;99.90;;;;;;5075332;28;20213;-87
2022/04/08 06:23:43;;;;;;;2.10;1.13;;;10.30;99.90;;;;;;5075051;28;20225;-87
2022/04/08 06:26:16;;;;;;;2.78;1.17;;;10.30;99.90;;;;;;5074721;28;20204;-87
2022/04/08 06:28:52;;;;;;;1.10;0.98;;;10.30;99.90;;;;;;5075207;28;20205;-87
2022/04/08 06:34:54;;;;;;;1.00;1.00;;;10.20;99.90;;;;;;4954855;29;20236;-89
2022/04/08 06:37:40;;;;;;;1.10;1.00;;;10.20;99.90;;;;;;4955562;28;20208;-87
2022/04/08 06:40:12;;;;;;;1.20;1.08;;;10.20;99.90;;;;;;4955307;29;20221;-87
2022/04/08 06:42:44;;;;;;;1.30;0.95;;;10.30;99.90;;;;;;4968947;28;20229;-87
2022/04/08 06:45:15;;;;;;;0.95;0.95;;;10.40;99.90;;;;;;4954966;28;20235;-87
2022/04/08 06:48:21;;;;;;;0.80;0.80;;;10.40;99.90;;;;;;4959078;28;20275;-86
2022/04/08 06:50:58;;;;;;;1.08;1.02;;;10.40;99.90;;;;;;4936539;29;20209;-83
2022/04/08 06:53:26;;;;;;;1.27;1.17;;;10.50;99.90;;;;;;5071871;28;20225;-83
2022/04/08 06:55:58;;;;;;;0.82;0.80;;;10.50;99.90;;;;;;5074451;28;20228;-86
2022/04/08 06:58:26;;;;;;;1.33;1.17;;;10.60;99.90;;;;;;5074889;28;20193;-86
2022/04/08 07:00:55;;;;;;;6.70;1.73;;;10.60;99.90;;;;;;5074761;28;20205;-86
2022/04/08 07:03:24;;;;;;;1.35;1.13;;;10.60;99.90;;;;;;5074113;28;20228;-87
2022/04/08 07:05:53;;;;;;;1.13;1.02;;;10.60;99.90;;;;;;5074323;28;20204;-86
2022/04/08 07:08:23;;;;;;;5.78;1.63;;;10.70;99.90;;;;;;5074615;28;20200;-87
2022/04/08 07:10:51;;;;;;;1.17;1.08;;;10.60;99.90;;;;;;5074555;28;20205;-86
2022/04/08 07:13:20;;;;;;;1.58;1.20;;;10.50;99.90;;;;;;5074460;28;20221;-86
2022/04/08 07:15:48;;;;;;;5.82;1.63;;;10.40;99.90;;;;;;5075671;28;20209;-86
2022/04/08 07:18:21;;;;;;;1.20;1.02;;;10.40;99.90;;;;;;5075741;28;20244;-86
2022/04/08 07:20:49;;;;;;;1.48;1.38;;;10.30;99.90;;;;;;5074131;28;20209;-87
2022/04/08 07:23:19;;;;;;;1.58;1.15;;;10.40;99.90;;;;;;5074127;28;20278;-86
2022/04/08 07:25:49;;;;;;;1.27;1.17;;;10.50;99.90;;;;;;5074159;28;20250;-86
2022/04/08 07:28:18;;;;;;;1.20;1.08;;;10.60;99.90;;;;;;5074109;28;20201;-86
2022/04/08 07:30:48;;;;;;;1.08;0.95;;;10.70;99.90;;;;;;5073885;28;20200;-86
2022/04/08 07:33:16;;;;;;;3.13;1.20;;;10.80;99.90;;;;;;5073962;28;20239;-86
2022/04/08 07:35:45;;;;;;;1.02;0.90;;;10.90;99.90;;;;;;5074072;28;20197;-86
2022/04/08 07:38:14;;;;;;;2.90;1.35;;;10.90;99.90;;;;;;5074385;28;20286;-87
2022/04/08 07:40:43;;;;;;;1.05;0.95;;;10.90;99.90;;;;;;5073459;28;20205;-86
2022/04/08 07:43:16;;;;;;;0.90;0.90;;;10.70;99.90;;;;;;5073733;28;20278;-86
2022/04/08 07:45:45;;;;;;;1.00;1.00;;;10.80;99.90;;;;;;5073388;28;20201;-86
2022/04/08 07:48:14;;;;;;;0.80;0.80;;;10.70;99.90;;;;;;5074084;28;20202;-86
2022/04/08 07:50:43;;;;;;;0.80;0.80;;;10.80;99.90;;;;;;5073356;28;20212;-87
2022/04/08 07:53:11;;;;;;;2.67;1.33;;;10.80;99.90;;;;;;5073620;28;20270;-86
2022/04/08 07:55:42;;;;;;;2.47;1.13;;;10.90;99.90;;;;;;5073663;28;20220;-86
2022/04/08 07:58:10;;;;;;;1.67;1.30;;;11.00;99.90;;;;;;5073285;28;20208;-86
2022/04/08 08:00:40;;;;;;;2.58;1.65;;;11.00;99.90;;;;;;5073184;28;20189;-85
2022/04/08 08:03:15;;;;;;;0.85;0.85;;;11.10;99.90;;;;;;5072612;28;20252;-86
2022/04/08 08:05:43;;;;;;;3.05;1.05;;;11.20;99.90;;;;;;5062250;28;20205;-86
2022/04/08 08:08:12;;;;;;;1.02;0.93;;;11.10;99.90;;;;;;5073686;28;20288;-86
2022/04/08 08:10:46;;;;;;;0.90;0.90;;;11.20;99.90;;;;;;5073503;28;20224;-86
2022/04/08 08:13:15;;;;;;;0.95;0.88;;;11.20;99.90;;;;;;5072323;28;20238;-86
2022/04/08 08:15:46;;;;;;;2.25;0.95;;;11.20;99.90;;;;;;5071783;28;20209;-86
2022/04/08 08:18:25;;;;;;;1.48;0.88;;;11.40;99.90;;;;;;5072169;28;20203;-86
2022/04/08 08:20:56;;;;;;;0.95;0.93;;;11.50;99.90;;;;;;5073012;28;20201;-86
2022/04/08 08:23:25;;;;;;;0.80;0.80;;;11.60;99.90;;;;;;5072695;28;20224;-85
2022/04/08 08:25:55;;;;;;;1.40;0.80;;;11.60;99.90;;;;;;5073616;28;20274;-86
2022/04/08 08:28:35;;;;;;;3.70;1.38;;;11.50;99.90;;;;;;5073193;28;20197;-86
2022/04/08 08:31:07;;;;;;;1.40;1.10;;;11.30;99.90;;;;;;5071799;28;20288;-86
2022/04/08 08:33:36;;;;;;;0.65;0.60;;;11.20;99.90;;;;;;5064538;28;20233;-85
2022/04/08 08:36:04;;;;;;;1.15;1.05;;;11.10;99.90;;;;;;5072277;28;20205;-85
2022/04/08 08:38:33;;;;;;;1.23;1.13;;;11.10;99.90;;;;;;5072609;28;20262;-86
2022/04/08 08:41:03;;;;;;;2.13;1.10;;;11.00;99.90;;;;;;5072661;28;20193;-85
2022/04/08 08:43:31;;;;;;;1.55;1.27;;;11.00;99.90;;;;;;5072504;28;20247;-86
2022/04/08 08:46:03;;;;;;;2.55;1.30;;;10.90;99.90;;;;;;5073691;28;20287;-83
2022/04/08 08:48:37;;;;;;;2.35;1.23;;;11.00;99.90;;;;;;5073734;28;20204;-85
2022/04/08 08:51:07;;;;;;;1.30;1.20;;;11.10;99.90;;;;;;5072719;28;20205;-85
2022/04/08 08:53:37;;;;;;;1.20;1.10;;;11.20;99.90;;;;;;5071279;28;20209;-85
2022/04/08 08:56:07;;;;;;;1.75;1.60;;;11.20;99.90;;;;;;5073604;28;20189;-86
2022/04/08 08:58:54;;;;;;;1.20;1.08;;;11.20;99.90;;;;;;5073122;28;20202;-85
2022/04/08 09:01:26;;;;;;;1.10;1.00;;;11.20;99.90;;;;;;5072104;28;20209;-84
2022/04/08 09:03:56;;;;;;;2.95;1.33;;;11.30;99.90;;;;;;5072618;28;20226;-83
2022/04/08 09:06:25;;;;;;;1.35;1.23;;;11.30;99.90;;;;;;5070481;28;20198;-83
2022/04/08 09:08:58;;;;;;;1.13;1.02;;;11.40;99.90;;;;;;5072795;28;20246;-84
2022/04/08 09:11:27;;;;;;;2.17;1.65;;;11.40;99.90;;;;;;5072517;28;20223;-84
2022/04/08 09:14:02;;;;;;;1.25;1.13;;;11.50;99.90;;;;;;5072345;28;20194;-83
2022/04/08 09:16:36;;;;;;;0.80;0.80;;;11.60;99.90;;;;;;5072458;28;21023;-83
2022/04/08 09:19:14;;;;;;;1.48;1.38;;;11.50;99.90;;;;;;5072785;28;20229;-83
2022/04/08 09:21:52;;;;;;;1.92;1.67;;;11.70;99.90;;;;;;5069542;28;20197;-84
2022/04/08 09:24:23;;;;;;;3.72;1.58;;;11.90;99.90;;;;;;5052606;28;20221;-85
2022/04/08 09:26:53;;;;;;;1.67;1.58;;;12.10;99.90;;;;;;5071215;28;20232;-84
2022/04/08 09:29:22;;;;;;;1.38;1.27;;;12.30;99.90;;;;;;5076769;28;20295;-82
2022/04/08 09:31:51;;;;;;;1.45;1.35;;;12.40;99.90;;;;;;5078311;28;20228;-83
2022/04/08 09:34:22;;;;;;;1.08;0.90;;;12.30;99.90;;;;;;5076066;28;20197;-83
2022/04/08 09:36:51;;;;;;;1.95;1.30;;;12.20;99.90;;;;;;5075791;28;20233;-83
2022/04/08 09:39:20;;;;;;;1.30;1.00;;;12.20;99.90;;;;;;5075444;28;20216;-83
2022/04/08 09:41:52;;;;;;;1.02;1.02;;;12.20;99.90;;;;;;5075294;28;20293;-82
2022/04/08 09:44:24;;;;;;;1.60;1.42;;;12.20;99.90;;;;;;5075070;28;20278;-82
2022/04/08 09:46:53;;;;;;;1.85;1.42;;;12.40;99.90;;;;;;5075188;28;20226;-82
2022/04/08 09:49:24;;;;;;;1.48;1.38;;;12.40;99.90;;;;;;5075132;28;20202;-83
2022/04/08 09:51:54;;;;;;;1.83;1.30;;;12.50;99.90;;;;;;5079289;28;20221;-83
2022/04/08 09:54:23;;;;;;;1.25;1.15;;;12.70;99.90;;;;;;5075997;28;20251;-83
2022/04/08 09:56:55;;;;;;;1.60;1.50;;;12.90;99.90;;;;;;5075158;28;20208;-84
2022/04/08 09:59:38;;;;;;;1.15;1.05;;;13.20;99.90;;;;;;5075143;28;20208;-83
2022/04/08 10:02:25;;;;;;;4.03;1.27;;;13.90;99.90;;;;;;5074570;28;20228;-83
2022/04/08 10:05:09;;;;;;;1.30;1.20;;;14.30;99.90;;;;;;5075249;28;20205;-83
2022/04/08 10:07:40;;;;;;;0.85;0.82;;;14.60;98.10;;;;;;5075104;28;20220;-83
2022/04/08 10:10:22;;;;;;;1.40;1.30;;;14.50;97.50;;;;;;5074894;28;20211;-83
2022/04/08 10:13:20;;;;;;;1.02;0.88;;;14.40;96.90;;;;;;5074964;28;20256;-83
2022/04/08 10:16:01;;;;;;;1.83;1.20;;;13.90;97.20;;;;;;5074893;28;20213;-83
2022/04/08 10:18:37;;;;;;;1.70;1.08;;;13.70;97.00;;;;;;5075197;28;20236;-83
2022/04/08 10:21:10;;;;;;;1.10;1.00;;;13.60;96.90;;;;;;5074225;28;20224;-83
2022/04/08 10:23:40;;;;;;;2.78;1.50;;;13.60;96.90;;;;;;5074608;28;20229;-82
2022/04/08 10:26:18;;;;;;;1.17;1.08;;;13.70;96.50;;;;;;5074818;28;20280;-82
2022/04/08 10:28:47;;;;;;;0.80;0.80;;;13.90;96.10;;;;;;5074958;28;20291;-82
2022/04/08 10:31:20;;;;;;;3.28;1.10;;;13.90;95.10;;;;;;5074844;28;20284;-82
2022/04/08 10:33:51;;;;;;;1.73;1.30;;;13.90;94.10;;;;;;5074426;28;20221;-83
2022/04/08 10:36:32;;;;;;;2.67;1.13;;;13.70;93.70;;;;;;5074874;28;20271;-82
2022/04/08 10:39:12;;;;;;;1.25;1.15;;;13.70;93.40;;;;;;5074308;28;20213;-82
2022/04/08 10:41:48;;;;;;;1.65;0.93;;;13.80;93.10;;;;;;5074808;28;20205;-82
2022/04/08 10:44:18;;;;;;;1.17;1.05;;;13.80;93.00;;;;;;5074551;28;20274;-85
2022/04/08 10:46:51;;;;;;;4.07;1.45;;;14.00;93.20;;;;;;5074879;28;20193;-86
2022/04/08 10:49:20;;;;;;;5.65;1.55;;;13.90;92.40;;;;;;5074596;28;20228;-85
2022/04/08 10:51:51;;;;;;;2.08;1.23;;;13.70;92.80;;;;;;5074946;28;20221;-85
2022/04/08 10:54:20;;;;;;;1.30;1.20;;;13.70;93.30;;;;;;5074961;28;20270;-87
2022/04/08 10:56:58;;;;;;;1.17;1.08;;;13.90;93.70;;;;;;5075303;28;20201;-86
2022/04/08 10:59:28;;;;;;;0.75;0.75;;;13.90;92.80;;;;;;5074509;28;20205;-85
2022/04/08 11:02:03;;;;;;;0.60;0.60;;;13.90;93.40;;;;;;5073907;28;20221;-86
2022/04/08 11:04:34;;;;;;;0.95;0.95;;;13.90;92.90;;;;;;5074691;28;20228;-86
2022/04/08 11:07:08;;;;;;;1.08;0.93;;;13.90;93.30;;;;;;5073665;28;20197;-85
2022/04/08 11:09:36;;;;;;;1.85;0.88;;;14.00;93.00;;;;;;5054698;28;20289;-85
2022/04/08 11:12:05;;;;;;;1.33;0.82;;;13.90;93.60;;;;;;5055799;28;20248;-85
2022/04/08 11:14:38;;;;;;;1.30;1.20;;;13.90;93.00;;;;;;5064334;28;20228;-84
2022/04/08 11:17:07;;;;;;;1.05;0.95;;;13.90;93.10;;;;;;5066309;28;20259;-84
2022/04/08 11:19:35;;;;;;;0.80;0.80;;;13.90;93.40;;;;;;5071412;28;20220;-84
2022/04/08 11:22:13;;;;;;;0.68;0.68;;;13.90;93.30;;;;;;5073823;28;20221;-85
2022/04/08 11:24:41;;;;;;;3.92;0.93;;;14.10;93.20;;;;;;5073305;28;20481;-84
2022/04/08 11:27:11;;;;;;;0.85;0.85;;;14.20;92.90;;;;;;5074259;28;20197;-84
2022/04/08 11:29:39;;;;;;;1.20;1.10;;;14.50;93.50;;;;;;5074174;28;20209;-84
2022/04/08 11:32:11;;;;;;;1.55;1.30;;;14.70;92.70;;;;;;5073559;28;20224;-84
2022/04/08 11:34:39;;;;;;;0.82;0.82;;;15.00;93.20;;;;;;5074043;28;20201;-84
2022/04/08 11:37:08;;;;;;;1.65;0.70;;;15.00;92.60;;;;;;5074374;28;20201;-84
2022/04/08 11:39:40;;;;;;;0.55;0.55;;;15.10;93.10;;;;;;5074103;28;20209;-84
2022/04/08 11:42:08;;;;;;;1.42;1.17;;;15.10;92.00;;;;;;5069285;28;20235;-85
2022/04/08 11:44:38;;;;;;;0.80;0.80;;;15.30;92.10;;;;;;5071945;28;20209;-84
2022/04/08 11:47:08;;;;;;;0.70;0.70;;;15.50;92.10;;;;;;5073995;28;20205;-85
2022/04/08 11:49:36;;;;;;;0.55;0.55;;;15.50;91.50;;;;;;5073441;28;20205;-84
2022/04/08 11:52:06;;;;;;;0.75;0.70;;;15.50;91.50;;;;;;5072815;28;20224;-88
2022/04/08 11:54:41;;;;;;;1.35;1.20;;;15.60;91.70;;;;;;5072040;28;20193;-87
2022/04/08 11:57:30;;;;;;;0.65;0.65;;;15.60;91.30;;;;;;5073710;28;20203;-86
2022/04/08 11:59:59;;;;;;;0.80;0.80;;;15.60;91.40;;;;;;5073533;28;20205;-86
2022/04/08 12:02:29;;;;;;;0.80;0.80;;;15.90;91.50;;;;;;5072619;28;20229;-86
2022/04/08 12:05:01;;;;;;;1.00;0.70;;;16.10;91.20;;;;;;5072530;28;20217;-86
2022/04/08 12:07:49;;;;;;;0.63;0.60;;;16.20;90.50;;;;;;5073354;28;20205;-86
2022/04/08 12:10:22;;;;;;;0.98;0.95;;;16.10;90.40;;;;;;5072570;28;20224;-87
2022/04/08 12:12:50;;;;;;;2.67;1.10;;;16.00;90.70;;;;;;5073153;28;20267;-86
2022/04/08 12:15:21;;;;;;;0.80;0.77;;;16.00;91.20;;;;;;5072854;28;20215;-86
2022/04/08 12:17:51;;;;;;;0.80;0.80;;;16.00;90.50;;;;;;5072915;28;20266;-86
2022/04/08 12:20:22;;;;;;;0.52;0.52;;;16.10;90.60;;;;;;5073405;28;20212;-85
2022/04/08 12:22:54;;;;;;;0.85;0.82;;;16.20;90.30;;;;;;5072958;28;20236;-86
2022/04/08 12:25:24;;;;;;;0.85;0.85;;;16.20;90.10;;;;;;5072519;28;20248;-86
2022/04/08 12:27:54;;;;;;;0.82;0.82;;;16.30;90.60;;;;;;5072792;28;20221;-86
2022/04/08 12:30:39;;;;;;;0.73;0.73;;;16.40;90.20;;;;;;5073202;28;20204;-87
2022/04/08 12:33:12;;;;;;;2.88;2.60;;;16.60;90.10;;;;;;5073409;28;20224;-86
2022/04/08 12:35:41;;;;;;;3.45;1.27;;;16.50;89.50;;;;;;5073210;28;20250;-85
2022/04/08 12:38:19;;;;;;;2.33;1.58;;;16.40;90.00;;;;;;5073085;28;20295;-87
2022/04/08 13:04:15;;;;;;;1.38;1.27;;;15.70;94.60;;;;;;4974984;28;20412;-88
2022/04/08 13:06:57;;;;;;;1.05;1.00;;;15.50;94.70;;;;;;5025069;28;20205;-90
2022/04/08 13:09:25;;;;;;;1.05;1.05;;;15.30;94.90;;;;;;5076571;28;20215;-87
2022/04/08 13:11:54;;;;;;;1.23;1.15;;;15.30;95.20;;;;;;5075957;28;20225;-86
2022/04/08 13:14:23;;;;;;;1.58;1.48;;;15.40;95.60;;;;;;5076433;28;20283;-87
2022/04/08 13:16:51;;;;;;;1.10;1.10;;;15.50;96.00;;;;;;5074228;28;20308;-87
2022/04/08 13:19:21;;;;;;;2.35;2.00;;;15.50;97.10;;;;;;5076090;28;20219;-87
2022/04/08 13:21:49;;;;;;;2.03;1.83;;;15.60;96.80;;;;;;5075542;28;20252;-87
2022/04/08 13:24:19;;;;;;;2.63;2.08;;;15.70;97.70;;;;;;5075528;28;20297;-87
2022/04/08 13:26:47;;;;;;;2.00;1.85;;;15.70;97.70;;;;;;5075637;28;20231;-87
2022/04/08 13:29:16;;;;;;;2.25;2.05;;;15.70;98.20;;;;;;5075985;28;20236;-87
2022/04/08 13:31:44;;;;;;;2.58;2.05;;;15.80;98.40;;;;;;5076625;28;20268;-87
2022/04/08 13:34:13;;;;;;;2.08;1.98;;;15.90;99.60;;;;;;5077482;28;20205;-88
2022/04/08 13:37:03;;;;;;;2.50;2.30;;;16.00;99.30;;;;;;5076712;28;20209;-88